createdAt,value
2023-03-24T00:00:20.305Z,99725.25
2023-03-24T00:02:49.367Z,99724.34
2023-03-24T00:05:19.204Z,99727.03
2023-03-24T00:07:47.089Z,99709.41
2023-03-24T00:10:18.424Z,99697.22
2023-03-24T00:12:47.920Z,99697.75
2023-03-24T00:15:19.157Z,99695.94
2023-03-24T00:17:50.374Z,99685.16
2023-03-24T00:20:20.892Z,99682.78
2023-03-24T00:22:57.126Z,99680.75
2023-03-24T00:25:36.185Z,99691.38
2023-03-24T00:28:06.522Z,99682.78
2023-03-24T00:30:35.110Z,99677.19
2023-03-24T00:33:02.237Z,99665.63
2023-03-24T00:35:29.311Z,99667.81
2023-03-24T00:37:56.183Z,99653.63
2023-03-24T00:40:23.010Z,99654.59
2023-03-24T00:42:50.791Z,99639.63
2023-03-24T00:45:23.043Z,99643.16
2023-03-24T00:47:54.315Z,99639.56
2023-03-24T00:50:26.493Z,99623.72
2023-03-24T00:52:55.951Z,99616.13
2023-03-24T00:55:23.136Z,99612.59
2023-03-24T00:57:51.436Z,99606.13
2023-03-24T01:00:24.918Z,99604.72
2023-03-24T01:02:57.514Z,99601.91
2023-03-24T01:05:28.408Z,99593.94
2023-03-24T01:08:06.261Z,99596.78
2023-03-24T01:10:50.571Z,99601.69
2023-03-24T01:13:18.745Z,99612.69
2023-03-24T01:15:46.341Z,99615.19
2023-03-24T01:18:15.043Z,99610.47
2023-03-24T01:20:47.119Z,99612.19
2023-03-24T01:23:17.290Z,99615.06
2023-03-24T01:25:48.369Z,99611.47
2023-03-24T01:28:18.708Z,99599.00
2023-03-24T01:30:46.120Z,99597.72
2023-03-24T01:33:13.687Z,99598.53
2023-03-24T01:35:40.871Z,99594.16
2023-03-24T01:38:10.628Z,99602.00
2023-03-24T01:40:39.619Z,99594.31
2023-03-24T01:43:09.932Z,99581.53
2023-03-24T01:45:42.867Z,99577.75
2023-03-24T01:48:30.123Z,99592.31
2023-03-24T01:51:37.145Z,99585.53
2023-03-24T01:54:25.415Z,99586.13
2023-03-24T01:57:10.150Z,99575.81
2023-03-24T01:59:44.515Z,99583.81
2023-03-24T02:02:22.271Z,99580.19
2023-03-24T02:04:59.990Z,99577.69
2023-03-24T02:07:59.821Z,99567.69
2023-03-24T02:10:33.937Z,99554.16
2023-03-24T02:13:01.659Z,99560.97
2023-03-24T02:15:31.691Z,99558.31
2023-03-24T02:18:08.519Z,99551.72
2023-03-24T02:20:46.970Z,99547.91
2023-03-24T02:23:38.400Z,99545.69
2023-03-24T02:26:36.463Z,99543.00
2023-03-24T02:29:50.138Z,99536.31
2023-03-24T02:32:41.888Z,99525.78
2023-03-24T02:35:30.629Z,99532.59
2023-03-24T02:38:23.993Z,99523.81
2023-03-24T02:41:01.989Z,99520.69
2023-03-24T02:43:32.525Z,99517.81
2023-03-24T02:46:22.613Z,99506.91
2023-03-24T02:48:49.754Z,99524.97
2023-03-24T02:51:40.769Z,99507.19
2023-03-24T02:54:11.687Z,99525.19
2023-03-24T02:57:06.179Z,99517.75
2023-03-24T03:00:24.320Z,99522.78
2023-03-24T03:03:09.142Z,99523.28
2023-03-24T03:05:44.722Z,99506.59
2023-03-24T03:08:15.179Z,99519.44
2023-03-24T03:10:46.541Z,99519.84
2023-03-24T03:13:25.410Z,99518.97
2023-03-24T03:15:58.835Z,99508.66
2023-03-24T03:18:36.015Z,99513.31
2023-03-24T03:21:10.457Z,99511.59
2023-03-24T03:23:55.043Z,99512.41
2023-03-24T03:26:26.801Z,99518.97
2023-03-24T03:29:00.202Z,99527.06
2023-03-24T03:31:35.733Z,99525.34
2023-03-24T03:34:28.571Z,99534.91
2023-03-24T03:37:10.232Z,99532.19
2023-03-24T03:39:48.866Z,99530.09
2023-03-24T03:42:16.755Z,99535.16
2023-03-24T03:44:44.423Z,99534.41
2023-03-24T03:47:14.631Z,99542.19
2023-03-24T03:49:46.276Z,99546.78
2023-03-24T03:52:19.882Z,99544.06
2023-03-24T03:54:50.830Z,99545.38
2023-03-24T03:57:21.357Z,99558.75
2023-03-24T04:00:20.160Z,99561.91
2023-03-24T04:03:19.592Z,99561.13
2023-03-24T04:06:02.528Z,99564.31
2023-03-24T04:08:53.689Z,99579.88
2023-03-24T04:11:49.515Z,99580.06
2023-03-24T04:15:11.226Z,99586.25
2023-03-24T04:18:41.408Z,99598.28
2023-03-24T04:21:27.932Z,99599.59
2023-03-24T04:24:12.373Z,99604.16
2023-03-24T04:27:00.932Z,99608.47
2023-03-24T04:29:46.944Z,99606.50
2023-03-24T04:32:46.872Z,99608.41
2023-03-24T04:35:49.392Z,99613.00
2023-03-24T04:38:28.471Z,99617.41
2023-03-24T04:41:09.905Z,99612.66
2023-03-24T04:43:39.258Z,99614.72
2023-03-24T04:46:09.742Z,99611.41
2023-03-24T04:48:52.471Z,99604.31
2023-03-24T04:51:28.869Z,99612.69
2023-03-24T04:54:06.157Z,99606.31
2023-03-24T04:56:48.747Z,99587.72
2023-03-24T04:59:34.855Z,99588.66
2023-03-24T05:02:05.129Z,99590.06
2023-03-24T05:04:40.585Z,99582.63
2023-03-24T05:07:18.939Z,99580.31
2023-03-24T05:09:49.434Z,99576.03
2023-03-24T05:12:18.118Z,99574.63
2023-03-24T05:15:04.337Z,99563.16
2023-03-24T05:17:35.380Z,99569.47
2023-03-24T05:20:07.001Z,99574.69
2023-03-24T05:22:36.633Z,99589.69
2023-03-24T05:25:04.557Z,99587.09
2023-03-24T05:27:32.958Z,99587.91
2023-03-24T05:30:12.794Z,99591.50
2023-03-24T05:32:40.603Z,99600.09
2023-03-24T05:35:09.219Z,99593.72
2023-03-24T05:37:39.062Z,99601.91
2023-03-24T05:40:07.417Z,99597.31
2023-03-24T05:42:56.799Z,99595.94
2023-03-24T05:45:27.257Z,99588.16
2023-03-24T05:47:54.862Z,99596.41
2023-03-24T05:50:31.972Z,99593.31
2023-03-24T05:52:59.186Z,99600.28
2023-03-24T05:56:01.378Z,99592.50
2023-03-24T05:58:51.592Z,99599.50
2023-03-24T06:01:19.688Z,99589.31
2023-03-24T06:03:49.445Z,99595.50
2023-03-24T06:06:17.066Z,99606.31
2023-03-24T06:08:45.212Z,99605.50
2023-03-24T06:11:14.117Z,99606.41
2023-03-24T06:13:51.310Z,99600.84
2023-03-24T06:16:24.074Z,99603.41
2023-03-24T06:18:57.175Z,99601.69
2023-03-24T06:21:51.861Z,99607.69
2023-03-24T06:24:24.132Z,99613.69
2023-03-24T06:26:52.191Z,99604.31
2023-03-24T06:29:19.509Z,99606.50
2023-03-24T06:31:49.178Z,99607.81
2023-03-24T06:34:17.050Z,99608.78
2023-03-24T06:36:52.707Z,99612.91
2023-03-24T06:39:19.918Z,99603.09
2023-03-24T06:41:47.400Z,99603.28
2023-03-24T06:44:14.659Z,99614.25
2023-03-24T06:46:43.025Z,99624.25
2023-03-24T06:49:11.077Z,99627.38
2023-03-24T06:51:38.166Z,99633.56
2023-03-24T06:54:05.568Z,99637.03
2023-03-24T06:56:35.725Z,99637.84
2023-03-24T06:59:04.540Z,99643.63
2023-03-24T07:01:35.240Z,99639.72
2023-03-24T07:04:16.121Z,99652.78
2023-03-24T07:07:08.558Z,99647.03
2023-03-24T07:09:41.957Z,99650.03
2023-03-24T07:12:09.466Z,99648.03
2023-03-24T07:14:40.931Z,99658.94
2023-03-24T07:17:08.480Z,99656.06
2023-03-24T07:19:49.555Z,99669.75
2023-03-24T07:22:37.146Z,99657.28
2023-03-24T07:25:36.655Z,99654.59
2023-03-24T07:28:14.016Z,99650.13
2023-03-24T07:30:41.296Z,99650.41
2023-03-24T07:33:12.943Z,99654.69
2023-03-24T07:35:46.172Z,99657.72
2023-03-24T07:38:13.468Z,99650.53
2023-03-24T07:40:40.514Z,99643.53
2023-03-24T07:43:07.766Z,99645.63
2023-03-24T07:45:52.845Z,99655.94
2023-03-24T07:48:19.826Z,99644.09
2023-03-24T07:50:47.938Z,99645.72
2023-03-24T07:53:34.155Z,99660.84
2023-03-24T07:56:02.424Z,99662.94
2023-03-24T07:58:30.145Z,99657.19
2023-03-24T08:01:17.402Z,99647.69
2023-03-24T08:03:49.542Z,99658.88
2023-03-24T08:06:16.690Z,99653.72
2023-03-24T08:08:52.886Z,99656.00
2023-03-24T08:11:20.140Z,99653.38
2023-03-24T08:13:47.268Z,99646.25
2023-03-24T08:16:14.296Z,99651.22
2023-03-24T08:18:41.149Z,99661.97
2023-03-24T08:21:07.975Z,99654.69
2023-03-24T08:23:37.095Z,99669.53
2023-03-24T08:26:04.008Z,99661.94
2023-03-24T08:28:30.933Z,99679.47
2023-03-24T08:30:57.909Z,99667.59
2023-03-24T08:33:24.997Z,99670.28
2023-03-24T08:35:57.674Z,99668.31
2023-03-24T08:38:30.774Z,99667.63
2023-03-24T08:41:02.235Z,99660.09
2023-03-24T08:43:30.779Z,99678.47
2023-03-24T08:45:58.789Z,99667.09
2023-03-24T08:48:26.259Z,99670.50
2023-03-24T08:50:53.360Z,99667.63
2023-03-24T08:53:20.788Z,99673.91
2023-03-24T08:55:47.788Z,99668.31
2023-03-24T08:58:20.528Z,99669.91
2023-03-24T09:00:48.731Z,99672.28
2023-03-24T09:03:18.181Z,99669.66
2023-03-24T09:05:46.606Z,99677.03
2023-03-24T09:08:21.442Z,99666.88
2023-03-24T09:10:50.009Z,99668.19
2023-03-24T09:13:20.083Z,99666.72
2023-03-24T09:15:53.842Z,99682.38
2023-03-24T09:18:22.293Z,99675.81
2023-03-24T09:20:49.745Z,99685.25
2023-03-24T09:23:17.462Z,99677.88
2023-03-24T09:25:44.265Z,99677.88
2023-03-24T09:28:11.317Z,99683.06
2023-03-24T09:30:38.108Z,99679.00
2023-03-24T09:33:04.862Z,99684.78
2023-03-24T09:35:31.943Z,99688.56
2023-03-24T09:37:59.162Z,99691.41
2023-03-24T09:40:28.803Z,99686.81
2023-03-24T09:43:05.599Z,99691.56
2023-03-24T09:45:41.656Z,99681.22
2023-03-24T09:48:17.920Z,99675.22
2023-03-24T09:51:24.603Z,99681.59
2023-03-24T09:54:13.369Z,99682.88
2023-03-24T09:56:44.182Z,99689.78
2023-03-24T09:59:19.253Z,99684.88
2023-03-24T10:01:46.661Z,99687.34
2023-03-24T10:04:17.069Z,99694.53
2023-03-24T10:06:43.897Z,99703.91
2023-03-24T10:09:19.761Z,99692.38
2023-03-24T10:11:55.771Z,99701.72
2023-03-24T10:14:47.417Z,99701.16
2023-03-24T10:17:23.314Z,99704.09
2023-03-24T10:20:13.127Z,99709.53
2023-03-24T10:22:48.406Z,99708.41
2023-03-24T10:25:22.799Z,99710.28
2023-03-24T10:27:57.289Z,99713.72
2023-03-24T10:30:28.884Z,99710.25
2023-03-24T10:32:55.748Z,99717.84
2023-03-24T10:35:30.130Z,99716.44
2023-03-24T10:38:00.983Z,99726.22
2023-03-24T10:40:33.458Z,99727.66
2023-03-24T10:43:06.275Z,99725.84
2023-03-24T10:45:36.839Z,99732.16
2023-03-24T10:48:04.326Z,99729.31
2023-03-24T10:50:35.998Z,99725.16
2023-03-24T10:53:30.386Z,99721.00
2023-03-24T10:55:57.081Z,99725.66
2023-03-24T10:58:36.021Z,99777.00
2023-03-24T11:01:03.709Z,99808.09
2023-03-24T11:03:35.012Z,99813.69
2023-03-24T11:06:04.432Z,99811.78
2023-03-24T11:08:38.913Z,99807.56
2023-03-24T11:11:29.541Z,99807.59
2023-03-24T11:14:03.555Z,99794.03
2023-03-24T11:16:44.024Z,99799.19
2023-03-24T11:19:23.140Z,99800.03
2023-03-24T11:21:52.845Z,99798.31
2023-03-24T11:24:20.899Z,99787.22
2023-03-24T11:27:00.425Z,99786.22
2023-03-24T11:29:30.336Z,99788.63
2023-03-24T11:32:11.974Z,99801.31
2023-03-24T11:34:44.400Z,99799.06
2023-03-24T11:37:17.329Z,99795.00
2023-03-24T11:39:44.686Z,99788.38
2023-03-24T11:42:12.092Z,99787.50
2023-03-24T11:44:38.958Z,99796.38
2023-03-24T11:47:08.746Z,99797.03
2023-03-24T11:49:42.024Z,99794.63
2023-03-24T11:52:20.066Z,99800.22
2023-03-24T11:54:46.806Z,99806.78
2023-03-24T11:57:17.684Z,99794.91
2023-03-24T12:00:19.618Z,99803.69
2023-03-24T12:03:07.760Z,99786.19
2023-03-24T12:05:42.858Z,99782.72
2023-03-24T12:08:18.897Z,99787.09
2023-03-24T12:11:06.629Z,99779.06
2023-03-24T12:13:37.250Z,99782.41
2023-03-24T12:16:07.800Z,99779.56
2023-03-24T12:18:52.676Z,99786.41
2023-03-24T12:21:34.486Z,99777.03
2023-03-24T12:24:30.773Z,99786.13
2023-03-24T12:27:01.220Z,99783.28
2023-03-24T12:29:32.341Z,99776.66
2023-03-24T12:32:14.948Z,99759.44
2023-03-24T12:35:09.687Z,99758.38
2023-03-24T12:37:54.614Z,99753.06
2023-03-24T12:40:41.384Z,99756.81
2023-03-24T12:43:37.895Z,99763.19
2023-03-24T12:46:21.729Z,99759.09
2023-03-24T12:49:07.074Z,99759.44
2023-03-24T12:51:47.759Z,99763.81
2023-03-24T12:54:35.619Z,99766.91
2023-03-24T12:57:08.195Z,99758.88
2023-03-24T12:59:59.474Z,99757.97
2023-03-24T13:02:42.680Z,99768.25
2023-03-24T13:05:16.922Z,99766.22
2023-03-24T13:07:48.435Z,99752.09
2023-03-24T13:10:23.180Z,99759.94
2023-03-24T13:13:02.601Z,99755.88
2023-03-24T13:15:35.891Z,99742.06
2023-03-24T13:18:11.820Z,99745.84
2023-03-24T13:20:58.048Z,99761.69
2023-03-24T13:23:35.839Z,99763.97
2023-03-24T13:26:34.080Z,99761.09
2023-03-24T13:29:03.926Z,99760.28
2023-03-24T13:31:38.154Z,99754.94
2023-03-24T13:34:10.808Z,99758.97
2023-03-24T13:36:50.386Z,99754.84
2023-03-24T13:39:21.396Z,99757.63
2023-03-24T13:41:53.833Z,99768.34
2023-03-24T13:44:22.848Z,99761.28
2023-03-24T13:47:13.773Z,99747.69
2023-03-24T13:49:43.225Z,99744.59
2023-03-24T13:52:35.320Z,99747.69
2023-03-24T13:55:08.510Z,99740.78
2023-03-24T13:57:40.180Z,99735.97
2023-03-24T14:00:22.438Z,99739.63
2023-03-24T14:02:55.432Z,99732.41
2023-03-24T14:05:22.087Z,99723.72
2023-03-24T14:08:13.333Z,99737.69
2023-03-24T14:10:45.398Z,99731.53
2023-03-24T14:13:12.146Z,99729.94
2023-03-24T14:15:52.343Z,99723.31
2023-03-24T14:18:26.020Z,99718.84
2023-03-24T14:20:56.236Z,99719.00
2023-03-24T14:23:35.569Z,99724.09
2023-03-24T14:26:02.322Z,99726.59
2023-03-24T14:28:36.934Z,99715.66
2023-03-24T14:31:18.571Z,99720.91
2023-03-24T14:33:54.637Z,99720.47
2023-03-24T14:36:41.057Z,99727.47
2023-03-24T14:39:08.962Z,99716.78
2023-03-24T14:41:39.164Z,99712.94
2023-03-24T14:44:06.538Z,99722.75
2023-03-24T14:46:42.208Z,99721.19
2023-03-24T14:49:20.832Z,99737.56
2023-03-24T14:52:09.243Z,99712.22
2023-03-24T14:54:46.443Z,99731.19
2023-03-24T14:57:41.564Z,99734.19
2023-03-24T15:00:18.929Z,99731.41
2023-03-24T15:02:49.308Z,99734.31
2023-03-24T15:05:25.577Z,99727.47
2023-03-24T15:08:03.413Z,99709.34
2023-03-24T15:10:39.487Z,99728.97
2023-03-24T15:13:18.642Z,99732.34
2023-03-24T15:15:47.655Z,99721.03
2023-03-24T15:18:18.818Z,99710.34
2023-03-24T15:20:46.272Z,99713.22
2023-03-24T15:23:22.273Z,99716.53
2023-03-24T15:25:48.976Z,99715.53
2023-03-24T15:28:26.749Z,99712.59
2023-03-24T15:30:54.773Z,99702.38
2023-03-24T15:33:21.820Z,99701.34
2023-03-24T15:35:58.307Z,99703.41
2023-03-24T15:38:31.314Z,99702.38
2023-03-24T15:41:07.906Z,99708.03
2023-03-24T15:43:43.992Z,99701.50
2023-03-24T15:46:27.368Z,99699.13
2023-03-24T15:48:59.254Z,99708.47
2023-03-24T15:51:49.489Z,99704.44
2023-03-24T15:54:22.945Z,99703.22
2023-03-24T15:57:02.103Z,99693.13
2023-03-24T15:59:37.231Z,99697.72
2023-03-24T16:02:12.336Z,99692.19
2023-03-24T16:04:40.914Z,99698.41
2023-03-24T16:07:07.599Z,99704.19
2023-03-24T16:09:41.030Z,99692.75
2023-03-24T16:12:11.470Z,99694.97
2023-03-24T16:14:38.895Z,99698.50
2023-03-24T16:17:07.189Z,99696.72
2023-03-24T16:19:34.055Z,99693.69
2023-03-24T16:22:00.880Z,99699.63
2023-03-24T16:24:27.513Z,99697.22
2023-03-24T16:26:54.316Z,99702.63
2023-03-24T16:29:23.024Z,99695.31
2023-03-24T16:31:52.396Z,99697.56
2023-03-24T16:34:21.005Z,99694.38
2023-03-24T16:36:49.604Z,99697.88
2023-03-24T16:39:21.796Z,99697.41
2023-03-24T16:41:48.960Z,99697.53
2023-03-24T16:44:17.483Z,99707.06
2023-03-24T16:46:46.867Z,99702.81
2023-03-24T16:49:19.048Z,99706.63
2023-03-24T16:51:47.121Z,99705.34
2023-03-24T16:54:14.232Z,99710.88
2023-03-24T16:56:42.448Z,99710.03
2023-03-24T16:59:10.650Z,99715.91
2023-03-24T17:01:39.841Z,99716.19
2023-03-24T17:04:34.108Z,99716.00
2023-03-24T17:07:08.360Z,99725.69
2023-03-24T17:09:36.241Z,99723.13
2023-03-24T17:12:04.472Z,99727.72
2023-03-24T17:14:32.160Z,99725.63
2023-03-24T17:16:59.681Z,99732.75
2023-03-24T17:19:27.127Z,99739.09
2023-03-24T17:22:01.797Z,99738.63
2023-03-24T17:24:36.000Z,99752.47
2023-03-24T17:27:03.408Z,99747.22
2023-03-24T17:29:30.261Z,99755.31
2023-03-24T17:31:57.053Z,99761.22
2023-03-24T17:34:23.782Z,99759.69
2023-03-24T17:36:51.764Z,99768.56
2023-03-24T17:39:20.016Z,99772.22
2023-03-24T17:41:46.816Z,99775.22
2023-03-24T17:44:14.459Z,99777.38
2023-03-24T17:46:41.526Z,99777.00
2023-03-24T17:49:08.480Z,99781.66
2023-03-24T17:51:35.389Z,99782.69
2023-03-24T17:54:02.623Z,99798.50
2023-03-24T17:56:29.845Z,99798.50
2023-03-24T17:58:59.118Z,99802.09
2023-03-24T18:01:29.884Z,99810.00
2023-03-24T18:03:58.093Z,99820.75
2023-03-24T18:06:27.417Z,99806.84
2023-03-24T18:08:55.006Z,99814.56
2023-03-24T18:11:26.284Z,99806.06
2023-03-24T18:13:52.988Z,99804.56
2023-03-24T18:16:21.775Z,99819.28
2023-03-24T18:18:50.370Z,99814.50
2023-03-24T18:21:17.762Z,99808.59
2023-03-24T18:23:48.648Z,99807.00
2023-03-24T18:26:17.243Z,99808.59
2023-03-24T18:28:46.066Z,99798.22
2023-03-24T18:31:18.899Z,99808.22
2023-03-24T18:33:47.605Z,99806.09
2023-03-24T18:36:26.372Z,99810.22
2023-03-24T18:39:01.134Z,99811.13
2023-03-24T18:41:29.986Z,99812.19
2023-03-24T18:43:59.445Z,99820.13
2023-03-24T18:46:39.353Z,99822.50
2023-03-24T18:49:10.759Z,99821.19
2023-03-24T18:51:37.732Z,99827.38
2023-03-24T18:54:08.320Z,99827.19
2023-03-24T18:56:39.923Z,99830.03
2023-03-24T18:59:09.814Z,99829.13
2023-03-24T19:01:39.414Z,99823.22
2023-03-24T19:04:06.500Z,99833.50
2023-03-24T19:06:35.418Z,99832.91
2023-03-24T19:09:02.640Z,99827.94
2023-03-24T19:11:29.838Z,99835.78
2023-03-24T19:13:57.167Z,99839.97
2023-03-24T19:16:24.145Z,99848.97
2023-03-24T19:18:51.128Z,99843.16
2023-03-24T19:21:19.842Z,99843.38
2023-03-24T19:23:53.125Z,99841.28
2023-03-24T19:30:34.127Z,99847.78
2023-03-24T19:33:02.063Z,99866.72
2023-03-24T19:35:29.856Z,99869.22
2023-03-24T19:37:57.083Z,99867.72
2023-03-24T19:40:24.373Z,99872.72
2023-03-24T19:42:53.254Z,99863.56
2023-03-24T19:45:55.591Z,99860.34
2023-03-24T19:49:01.572Z,99883.50
2023-03-24T19:51:38.944Z,99903.91
2023-03-24T19:54:19.862Z,99916.31
2023-03-24T19:56:49.174Z,99918.50
2023-03-24T19:59:23.690Z,99933.06
2023-03-24T20:01:52.312Z,99933.06
2023-03-24T20:04:31.542Z,99904.53
2023-03-24T20:07:44.443Z,99874.94
2023-03-24T20:10:55.635Z,99857.91
2023-03-24T20:17:35.718Z,99848.91
2023-03-24T20:20:10.372Z,99845.34
2023-03-24T20:22:52.244Z,99836.38
2023-03-24T20:25:59.142Z,99837.56
2023-03-24T20:28:22.301Z,99833.56
2023-03-24T20:31:29.083Z,99842.38
2023-03-24T20:33:57.157Z,99841.78
2023-03-24T20:36:23.904Z,99849.56
2023-03-24T20:38:54.277Z,99841.41
2023-03-24T20:41:22.069Z,99852.19
2023-03-24T20:43:49.077Z,99852.41
2023-03-24T20:46:17.875Z,99870.97
2023-03-24T20:48:45.880Z,99867.47
2023-03-24T20:54:16.512Z,99883.97
2023-03-24T20:56:49.034Z,99888.41
2023-03-24T20:59:18.484Z,99898.31
2023-03-24T21:01:54.915Z,99926.84
2023-03-24T21:04:25.474Z,99959.03
2023-03-24T21:06:54.557Z,99954.69
2023-03-24T21:09:25.317Z,99959.38
2023-03-24T21:12:29.340Z,99953.72
2023-03-24T21:15:00.407Z,99926.50
2023-03-24T21:20:38.760Z,99902.16
2023-03-24T21:23:08.142Z,99890.03
2023-03-24T21:25:36.680Z,99888.66
2023-03-24T21:28:04.075Z,99887.03
2023-03-24T21:30:31.518Z,99891.63
2023-03-24T21:32:59.576Z,99898.66
2023-03-24T21:35:26.983Z,99900.09
2023-03-24T21:37:54.456Z,99901.22
2023-03-24T21:40:24.559Z,99903.13
2023-03-24T21:42:53.576Z,99908.81
2023-03-24T21:45:23.627Z,99913.13
2023-03-24T21:47:50.928Z,99918.50
2023-03-24T21:50:22.714Z,99914.09
2023-03-24T21:52:51.302Z,99917.88
2023-03-24T21:55:20.414Z,99927.56
2023-03-24T21:57:49.913Z,99932.13
2023-03-24T22:00:19.601Z,99930.28
2023-03-24T22:02:47.810Z,99920.19
2023-03-24T22:05:17.171Z,99909.28
2023-03-24T22:07:51.854Z,99920.09
2023-03-24T22:10:22.683Z,99905.31
2023-03-24T22:12:53.582Z,99894.75
2023-03-24T22:15:21.336Z,99901.69
2023-03-24T22:17:48.149Z,99907.53
2023-03-24T22:20:15.875Z,99911.50
2023-03-24T22:22:43.099Z,99914.31
2023-03-24T22:25:13.163Z,99911.84
2023-03-24T22:27:40.135Z,99910.53
2023-03-24T22:30:10.609Z,99917.06
2023-03-24T22:32:37.386Z,99919.16
2023-03-24T22:35:04.585Z,99920.78
2023-03-24T22:37:32.493Z,99921.22
2023-03-24T22:39:59.266Z,99924.38
2023-03-24T22:42:25.973Z,99928.63
2023-03-24T22:44:52.643Z,99925.66
2023-03-24T22:47:19.348Z,99930.28
2023-03-24T22:49:46.132Z,99930.84
2023-03-24T22:52:12.779Z,99924.50
2023-03-24T22:54:40.281Z,99918.03
2023-03-24T22:57:07.399Z,99913.13
2023-03-24T22:59:35.583Z,99927.06
2023-03-24T23:02:09.809Z,99920.09
2023-03-24T23:04:39.855Z,99927.06
2023-03-24T23:07:07.618Z,99930.34
2023-03-24T23:09:34.450Z,99932.78
2023-03-24T23:12:01.458Z,99940.84
2023-03-24T23:14:28.360Z,99934.75
2023-03-24T23:16:56.161Z,99931.03
2023-03-24T23:19:23.298Z,99942.81
2023-03-24T23:21:50.056Z,99945.94
2023-03-24T23:24:17.092Z,99961.28
2023-03-24T23:26:44.093Z,99962.88
2023-03-24T23:29:11.038Z,99950.25
2023-03-24T23:31:37.707Z,99966.09
2023-03-24T23:34:07.553Z,99946.03
2023-03-24T23:36:34.485Z,99969.72
2023-03-24T23:39:01.179Z,99957.38
2023-03-24T23:41:27.917Z,99968.13
2023-03-24T23:43:55.109Z,99960.66
2023-03-24T23:46:23.898Z,99962.31
2023-03-24T23:48:50.938Z,99956.47
2023-03-24T23:51:17.632Z,99966.19
2023-03-24T23:53:44.691Z,99964.09
2023-03-24T23:56:14.858Z,99965.78
2023-03-24T23:58:42.722Z,99952.91
